sensor_id;sensor_type;location;lat;lon;timestamp;temperature;humidity
2897;DHT22;1458;49.728;9.228;2022-09-03T00:02:22;14.90;70.80
2897;DHT22;1458;49.728;9.228;2022-09-03T00:04:59;14.90;70.90
2897;DHT22;1458;49.728;9.228;2022-09-03T00:07:36;14.80;71.40
2897;DHT22;1458;49.728;9.228;2022-09-03T00:10:11;14.60;72.00
2897;DHT22;1458;49.728;9.228;2022-09-03T00:12:43;14.50;72.40
2897;DHT22;1458;49.728;9.228;2022-09-03T00:15:14;14.20;73.80
2897;DHT22;1458;49.728;9.228;2022-09-03T00:17:48;14.30;74.60
2897;DHT22;1458;49.728;9.228;2022-09-03T00:20:21;14.40;74.00
2897;DHT22;1458;49.728;9.228;2022-09-03T00:22:54;14.50;73.80
2897;DHT22;1458;49.728;9.228;2022-09-03T00:25:28;14.60;73.30
2897;DHT22;1458;49.728;9.228;2022-09-03T00:28:03;14.60;73.30
2897;DHT22;1458;49.728;9.228;2022-09-03T00:30:33;14.60;73.40
2897;DHT22;1458;49.728;9.228;2022-09-03T00:33:04;14.60;73.90
2897;DHT22;1458;49.728;9.228;2022-09-03T00:35:41;14.50;73.90
2897;DHT22;1458;49.728;9.228;2022-09-03T00:38:13;14.50;74.20
2897;DHT22;1458;49.728;9.228;2022-09-03T00:40:59;14.40;74.50
2897;DHT22;1458;49.728;9.228;2022-09-03T00:43:43;14.30;74.50
2897;DHT22;1458;49.728;9.228;2022-09-03T00:46:28;14.30;74.60
2897;DHT22;1458;49.728;9.228;2022-09-03T00:49:21;14.30;75.10
2897;DHT22;1458;49.728;9.228;2022-09-03T00:52:01;14.40;74.50
2897;DHT22;1458;49.728;9.228;2022-09-03T00:54:42;14.40;74.40
2897;DHT22;1458;49.728;9.228;2022-09-03T00:57:27;14.40;74.80
2897;DHT22;1458;49.728;9.228;2022-09-03T01:00:05;14.40;74.40
2897;DHT22;1458;49.728;9.228;2022-09-03T01:02:46;14.10;75.60
2897;DHT22;1458;49.728;9.228;2022-09-03T01:05:31;14.00;76.30
2897;DHT22;1458;49.728;9.228;2022-09-03T01:08:15;13.90;76.90
2897;DHT22;1458;49.728;9.228;2022-09-03T01:10:55;13.90;77.20
2897;DHT22;1458;49.728;9.228;2022-09-03T01:13:34;14.00;77.90
2897;DHT22;1458;49.728;9.228;2022-09-03T01:16:16;14.00;78.00
2897;DHT22;1458;49.728;9.228;2022-09-03T01:18:57;14.00;77.90
2897;DHT22;1458;49.728;9.228;2022-09-03T01:21:56;13.80;78.20
2897;DHT22;1458;49.728;9.228;2022-09-03T01:24:46;13.80;78.90
2897;DHT22;1458;49.728;9.228;2022-09-03T01:27:35;14.10;77.90
2897;DHT22;1458;49.728;9.228;2022-09-03T01:30:11;13.90;77.70
2897;DHT22;1458;49.728;9.228;2022-09-03T01:32:50;13.80;77.90
2897;DHT22;1458;49.728;9.228;2022-09-03T01:35:26;13.70;78.80
2897;DHT22;1458;49.728;9.228;2022-09-03T01:38:14;13.80;78.50
2897;DHT22;1458;49.728;9.228;2022-09-03T01:40:53;13.70;79.30
2897;DHT22;1458;49.728;9.228;2022-09-03T01:43:49;13.50;79.90
2897;DHT22;1458;49.728;9.228;2022-09-03T01:46:32;13.60;80.20
2897;DHT22;1458;49.728;9.228;2022-09-03T01:49:12;13.60;80.80
2897;DHT22;1458;49.728;9.228;2022-09-03T01:51:52;13.60;81.00
2897;DHT22;1458;49.728;9.228;2022-09-03T01:54:45;13.70;81.40
2897;DHT22;1458;49.728;9.228;2022-09-03T01:57:40;13.80;80.50
2897;DHT22;1458;49.728;9.228;2022-09-03T02:00:13;14.00;79.60
2897;DHT22;1458;49.728;9.228;2022-09-03T02:02:48;14.00;80.20
2897;DHT22;1458;49.728;9.228;2022-09-03T02:05:18;14.10;80.10
2897;DHT22;1458;49.728;9.228;2022-09-03T02:07:55;14.20;79.70
2897;DHT22;1458;49.728;9.228;2022-09-03T02:10:26;14.40;78.40
2897;DHT22;1458;49.728;9.228;2022-09-03T02:12:59;14.30;79.00
2897;DHT22;1458;49.728;9.228;2022-09-03T02:15:28;14.50;78.10
2897;DHT22;1458;49.728;9.228;2022-09-03T02:18:03;14.60;77.60
2897;DHT22;1458;49.728;9.228;2022-09-03T02:20:33;14.60;77.40
2897;DHT22;1458;49.728;9.228;2022-09-03T02:23:01;14.60;76.80
2897;DHT22;1458;49.728;9.228;2022-09-03T02:25:36;14.70;77.50
2897;DHT22;1458;49.728;9.228;2022-09-03T02:28:06;14.80;76.40
2897;DHT22;1458;49.728;9.228;2022-09-03T02:30:35;14.90;77.00
2897;DHT22;1458;49.728;9.228;2022-09-03T02:33:04;14.90;77.10
2897;DHT22;1458;49.728;9.228;2022-09-03T02:35:32;14.80;78.80
2897;DHT22;1458;49.728;9.228;2022-09-03T02:38:08;14.90;77.00
2897;DHT22;1458;49.728;9.228;2022-09-03T02:40:37;14.80;77.90
2897;DHT22;1458;49.728;9.228;2022-09-03T02:43:09;14.90;77.40
2897;DHT22;1458;49.728;9.228;2022-09-03T02:45:44;14.90;77.40
2897;DHT22;1458;49.728;9.228;2022-09-03T02:48:17;15.10;76.50
2897;DHT22;1458;49.728;9.228;2022-09-03T02:50:47;15.10;76.10
2897;DHT22;1458;49.728;9.228;2022-09-03T02:53:15;15.10;76.50
2897;DHT22;1458;49.728;9.228;2022-09-03T02:55:43;15.00;76.60
2897;DHT22;1458;49.728;9.228;2022-09-03T02:58:12;15.00;77.60
2897;DHT22;1458;49.728;9.228;2022-09-03T03:00:39;15.00;78.90
2897;DHT22;1458;49.728;9.228;2022-09-03T03:03:07;15.00;78.40
2897;DHT22;1458;49.728;9.228;2022-09-03T03:05:43;15.10;76.90
2897;DHT22;1458;49.728;9.228;2022-09-03T03:08:13;15.20;77.70
2897;DHT22;1458;49.728;9.228;2022-09-03T03:10:42;15.20;77.00
2897;DHT22;1458;49.728;9.228;2022-09-03T03:13:10;15.40;74.80
2897;DHT22;1458;49.728;9.228;2022-09-03T03:15:40;15.40;75.30
2897;DHT22;1458;49.728;9.228;2022-09-03T03:18:08;15.40;74.30
2897;DHT22;1458;49.728;9.228;2022-09-03T03:20:38;15.40;74.50
2897;DHT22;1458;49.728;9.228;2022-09-03T03:23:07;15.50;73.60
2897;DHT22;1458;49.728;9.228;2022-09-03T03:25:36;15.50;74.10
2897;DHT22;1458;49.728;9.228;2022-09-03T03:28:05;15.50;72.90
2897;DHT22;1458;49.728;9.228;2022-09-03T03:30:36;15.50;73.10
2897;DHT22;1458;49.728;9.228;2022-09-03T03:33:05;15.50;72.80
2897;DHT22;1458;49.728;9.228;2022-09-03T03:35:33;15.50;72.80
2897;DHT22;1458;49.728;9.228;2022-09-03T03:38:03;15.50;72.80
2897;DHT22;1458;49.728;9.228;2022-09-03T03:40:30;15.60;72.80
2897;DHT22;1458;49.728;9.228;2022-09-03T03:43:00;15.60;72.40
2897;DHT22;1458;49.728;9.228;2022-09-03T03:45:28;15.60;71.90
2897;DHT22;1458;49.728;9.228;2022-09-03T03:47:56;15.70;71.20
2897;DHT22;1458;49.728;9.228;2022-09-03T03:50:26;15.70;71.30
2897;DHT22;1458;49.728;9.228;2022-09-03T03:52:53;15.80;70.30
2897;DHT22;1458;49.728;9.228;2022-09-03T03:55:22;15.80;70.50
2897;DHT22;1458;49.728;9.228;2022-09-03T03:57:50;15.80;70.80
2897;DHT22;1458;49.728;9.228;2022-09-03T04:00:17;15.80;69.90
2897;DHT22;1458;49.728;9.228;2022-09-03T04:02:45;15.80;69.60
2897;DHT22;1458;49.728;9.228;2022-09-03T04:05:13;15.80;69.60
2897;DHT22;1458;49.728;9.228;2022-09-03T04:07:40;15.90;69.30
2897;DHT22;1458;49.728;9.228;2022-09-03T04:10:09;16.00;68.90
2897;DHT22;1458;49.728;9.228;2022-09-03T04:12:38;15.80;68.90
2897;DHT22;1458;49.728;9.228;2022-09-03T04:15:05;15.80;69.30
2897;DHT22;1458;49.728;9.228;2022-09-03T04:17:33;15.90;69.00
2897;DHT22;1458;49.728;9.228;2022-09-03T04:20:06;15.90;69.10
2897;DHT22;1458;49.728;9.228;2022-09-03T04:22:34;15.80;69.30
2897;DHT22;1458;49.728;9.228;2022-09-03T04:25:02;15.70;69.60
2897;DHT22;1458;49.728;9.228;2022-09-03T04:27:30;15.70;69.30
2897;DHT22;1458;49.728;9.228;2022-09-03T04:29:59;15.80;68.90
2897;DHT22;1458;49.728;9.228;2022-09-03T04:32:27;15.90;69.00
2897;DHT22;1458;49.728;9.228;2022-09-03T04:35:12;15.80;69.20
2897;DHT22;1458;49.728;9.228;2022-09-03T04:37:41;15.80;69.10
2897;DHT22;1458;49.728;9.228;2022-09-03T04:40:09;15.80;69.60
2897;DHT22;1458;49.728;9.228;2022-09-03T04:42:37;15.70;69.70
2897;DHT22;1458;49.728;9.228;2022-09-03T04:45:07;15.60;69.60
2897;DHT22;1458;49.728;9.228;2022-09-03T04:47:36;15.60;69.70
2897;DHT22;1458;49.728;9.228;2022-09-03T04:50:04;15.70;69.20
2897;DHT22;1458;49.728;9.228;2022-09-03T04:52:32;15.70;69.60
2897;DHT22;1458;49.728;9.228;2022-09-03T04:55:00;15.80;69.70
2897;DHT22;1458;49.728;9.228;2022-09-03T04:57:27;15.70;68.90
2897;DHT22;1458;49.728;9.228;2022-09-03T04:59:59;15.80;69.20
2897;DHT22;1458;49.728;9.228;2022-09-03T05:02:28;15.80;70.00
2897;DHT22;1458;49.728;9.228;2022-09-03T05:04:56;15.90;69.50
2897;DHT22;1458;49.728;9.228;2022-09-03T05:07:24;15.80;70.40
2897;DHT22;1458;49.728;9.228;2022-09-03T05:10:05;15.80;70.60
2897;DHT22;1458;49.728;9.228;2022-09-03T05:12:33;15.90;69.40
2897;DHT22;1458;49.728;9.228;2022-09-03T05:15:01;15.90;69.20
2897;DHT22;1458;49.728;9.228;2022-09-03T05:17:31;15.90;69.30
2897;DHT22;1458;49.728;9.228;2022-09-03T05:19:59;16.00;69.00
2897;DHT22;1458;49.728;9.228;2022-09-03T05:22:27;16.10;69.00
2897;DHT22;1458;49.728;9.228;2022-09-03T05:24:54;16.10;68.80
2897;DHT22;1458;49.728;9.228;2022-09-03T05:27:22;16.00;68.70
2897;DHT22;1458;49.728;9.228;2022-09-03T05:29:49;16.10;68.60
2897;DHT22;1458;49.728;9.228;2022-09-03T05:32:17;16.10;68.50
2897;DHT22;1458;49.728;9.228;2022-09-03T05:34:46;16.10;68.20
2897;DHT22;1458;49.728;9.228;2022-09-03T05:37:13;16.10;68.20
2897;DHT22;1458;49.728;9.228;2022-09-03T05:39:41;16.10;67.60
2897;DHT22;1458;49.728;9.228;2022-09-03T05:42:08;16.20;67.90
2897;DHT22;1458;49.728;9.228;2022-09-03T05:44:39;16.20;68.00
2897;DHT22;1458;49.728;9.228;2022-09-03T05:47:07;16.20;68.00
2897;DHT22;1458;49.728;9.228;2022-09-03T05:49:35;16.30;67.30
2897;DHT22;1458;49.728;9.228;2022-09-03T05:52:05;16.30;68.40
2897;DHT22;1458;49.728;9.228;2022-09-03T05:54:33;16.30;67.10
2897;DHT22;1458;49.728;9.228;2022-09-03T05:57:01;16.40;67.00
2897;DHT22;1458;49.728;9.228;2022-09-03T05:59:28;16.40;66.60
2897;DHT22;1458;49.728;9.228;2022-09-03T06:01:56;16.40;67.20
2897;DHT22;1458;49.728;9.228;2022-09-03T06:04:24;16.30;67.00
2897;DHT22;1458;49.728;9.228;2022-09-03T06:06:52;16.30;67.00
2897;DHT22;1458;49.728;9.228;2022-09-03T06:09:21;16.40;67.30
2897;DHT22;1458;49.728;9.228;2022-09-03T06:11:48;16.40;67.20
2897;DHT22;1458;49.728;9.228;2022-09-03T06:14:16;16.40;67.30
2897;DHT22;1458;49.728;9.228;2022-09-03T06:16:45;16.40;67.10
2897;DHT22;1458;49.728;9.228;2022-09-03T06:19:14;16.50;66.90
2897;DHT22;1458;49.728;9.228;2022-09-03T06:21:43;16.60;67.30
2897;DHT22;1458;49.728;9.228;2022-09-03T06:24:13;16.60;66.70
2897;DHT22;1458;49.728;9.228;2022-09-03T06:26:43;16.70;65.60
2897;DHT22;1458;49.728;9.228;2022-09-03T06:29:11;16.80;65.70
2897;DHT22;1458;49.728;9.228;2022-09-03T06:31:39;16.90;66.20
2897;DHT22;1458;49.728;9.228;2022-09-03T06:34:07;16.90;65.60
2897;DHT22;1458;49.728;9.228;2022-09-03T06:36:35;17.00;65.70
2897;DHT22;1458;49.728;9.228;2022-09-03T06:39:03;17.10;65.70
2897;DHT22;1458;49.728;9.228;2022-09-03T06:41:31;17.10;64.50
2897;DHT22;1458;49.728;9.228;2022-09-03T06:44:04;17.20;65.80
2897;DHT22;1458;49.728;9.228;2022-09-03T06:46:39;17.10;68.00
2897;DHT22;1458;49.728;9.228;2022-09-03T06:49:08;17.00;70.60
2897;DHT22;1458;49.728;9.228;2022-09-03T06:51:36;16.90;71.70
2897;DHT22;1458;49.728;9.228;2022-09-03T06:54:05;16.80;72.30
2897;DHT22;1458;49.728;9.228;2022-09-03T06:56:35;16.60;76.20
2897;DHT22;1458;49.728;9.228;2022-09-03T06:59:06;16.50;76.20
2897;DHT22;1458;49.728;9.228;2022-09-03T07:01:34;16.60;76.60
2897;DHT22;1458;49.728;9.228;2022-09-03T07:04:06;16.70;79.80
2897;DHT22;1458;49.728;9.228;2022-09-03T07:06:36;16.80;77.60
2897;DHT22;1458;49.728;9.228;2022-09-03T07:09:05;16.90;76.30
2897;DHT22;1458;49.728;9.228;2022-09-03T07:11:33;17.20;77.90
2897;DHT22;1458;49.728;9.228;2022-09-03T07:14:04;17.40;74.30
2897;DHT22;1458;49.728;9.228;2022-09-03T07:16:33;17.70;74.40
2897;DHT22;1458;49.728;9.228;2022-09-03T07:19:02;17.90;74.60
2897;DHT22;1458;49.728;9.228;2022-09-03T07:21:32;18.10;74.30
2897;DHT22;1458;49.728;9.228;2022-09-03T07:24:01;18.20;68.50
2897;DHT22;1458;49.728;9.228;2022-09-03T07:26:31;18.20;69.40
2897;DHT22;1458;49.728;9.228;2022-09-03T07:29:00;18.20;68.90
2897;DHT22;1458;49.728;9.228;2022-09-03T07:31:31;18.20;70.70
2897;DHT22;1458;49.728;9.228;2022-09-03T07:34:01;18.20;67.40
2897;DHT22;1458;49.728;9.228;2022-09-03T07:36:35;18.20;69.70
2897;DHT22;1458;49.728;9.228;2022-09-03T07:39:04;18.30;68.30
2897;DHT22;1458;49.728;9.228;2022-09-03T07:41:31;18.30;69.20
2897;DHT22;1458;49.728;9.228;2022-09-03T07:44:00;18.40;69.10
2897;DHT22;1458;49.728;9.228;2022-09-03T07:46:33;18.20;66.30
2897;DHT22;1458;49.728;9.228;2022-09-03T07:49:03;18.40;67.50
2897;DHT22;1458;49.728;9.228;2022-09-03T07:51:33;18.60;67.60
2897;DHT22;1458;49.728;9.228;2022-09-03T07:54:03;18.90;65.60
2897;DHT22;1458;49.728;9.228;2022-09-03T07:56:33;18.90;67.10
2897;DHT22;1458;49.728;9.228;2022-09-03T07:59:01;18.80;65.40
2897;DHT22;1458;49.728;9.228;2022-09-03T08:01:31;18.80;65.50
2897;DHT22;1458;49.728;9.228;2022-09-03T08:04:00;18.80;67.20
2897;DHT22;1458;49.728;9.228;2022-09-03T08:06:30;18.70;67.00
2897;DHT22;1458;49.728;9.228;2022-09-03T08:09:00;18.70;68.50
2897;DHT22;1458;49.728;9.228;2022-09-03T08:11:29;18.80;69.50
2897;DHT22;1458;49.728;9.228;2022-09-03T08:13:59;18.70;70.50
2897;DHT22;1458;49.728;9.228;2022-09-03T08:16:30;18.70;69.40
2897;DHT22;1458;49.728;9.228;2022-09-03T08:19:01;18.70;69.00
2897;DHT22;1458;49.728;9.228;2022-09-03T08:21:28;18.70;68.60
2897;DHT22;1458;49.728;9.228;2022-09-03T08:23:56;18.80;67.10
2897;DHT22;1458;49.728;9.228;2022-09-03T08:26:28;18.50;66.80
2897;DHT22;1458;49.728;9.228;2022-09-03T08:28:57;18.10;68.00
2897;DHT22;1458;49.728;9.228;2022-09-03T08:31:26;17.90;71.00
2897;DHT22;1458;49.728;9.228;2022-09-03T08:34:00;17.60;73.00
2897;DHT22;1458;49.728;9.228;2022-09-03T08:36:32;17.40;74.90
2897;DHT22;1458;49.728;9.228;2022-09-03T08:39:03;17.10;78.10
2897;DHT22;1458;49.728;9.228;2022-09-03T08:41:41;17.00;86.00
2897;DHT22;1458;49.728;9.228;2022-09-03T08:44:27;16.80;87.30
2897;DHT22;1458;49.728;9.228;2022-09-03T08:46:58;16.50;91.90
2897;DHT22;1458;49.728;9.228;2022-09-03T08:49:33;16.30;95.70
2897;DHT22;1458;49.728;9.228;2022-09-03T08:52:08;16.10;99.10
2897;DHT22;1458;49.728;9.228;2022-09-03T08:54:48;15.80;99.90
2897;DHT22;1458;49.728;9.228;2022-09-03T08:57:19;15.80;99.90
2897;DHT22;1458;49.728;9.228;2022-09-03T08:59:50;15.80;99.90
2897;DHT22;1458;49.728;9.228;2022-09-03T09:02:25;16.00;99.90
2897;DHT22;1458;49.728;9.228;2022-09-03T09:05:06;16.20;99.90
2897;DHT22;1458;49.728;9.228;2022-09-03T09:07:43;16.30;99.90
2897;DHT22;1458;49.728;9.228;2022-09-03T09:10:21;16.50;99.90
2897;DHT22;1458;49.728;9.228;2022-09-03T09:13:02;16.60;99.90
2897;DHT22;1458;49.728;9.228;2022-09-03T09:15:42;16.80;99.90
2897;DHT22;1458;49.728;9.228;2022-09-03T09:18:24;17.00;99.90
2897;DHT22;1458;49.728;9.228;2022-09-03T09:21:06;17.00;99.90
2897;DHT22;1458;49.728;9.228;2022-09-03T09:23:42;17.30;99.90
2897;DHT22;1458;49.728;9.228;2022-09-03T09:26:14;17.40;99.90
2897;DHT22;1458;49.728;9.228;2022-09-03T09:28:46;17.40;99.90
2897;DHT22;1458;49.728;9.228;2022-09-03T09:31:15;17.50;99.90
2897;DHT22;1458;49.728;9.228;2022-09-03T09:33:44;17.70;99.90
2897;DHT22;1458;49.728;9.228;2022-09-03T09:36:15;17.70;99.90
2897;DHT22;1458;49.728;9.228;2022-09-03T09:38:45;17.80;99.90
2897;DHT22;1458;49.728;9.228;2022-09-03T09:41:15;17.70;99.90
2897;DHT22;1458;49.728;9.228;2022-09-03T09:43:45;17.80;99.90
2897;DHT22;1458;49.728;9.228;2022-09-03T09:46:18;17.70;99.90
2897;DHT22;1458;49.728;9.228;2022-09-03T09:48:50;17.60;99.90
2897;DHT22;1458;49.728;9.228;2022-09-03T09:51:24;17.50;99.90
2897;DHT22;1458;49.728;9.228;2022-09-03T09:54:01;17.60;99.90
2897;DHT22;1458;49.728;9.228;2022-09-03T09:56:29;17.60;99.90
2897;DHT22;1458;49.728;9.228;2022-09-03T09:59:04;17.60;99.90
2897;DHT22;1458;49.728;9.228;2022-09-03T10:01:33;17.60;99.90
2897;DHT22;1458;49.728;9.228;2022-09-03T10:04:09;17.50;99.90
2897;DHT22;1458;49.728;9.228;2022-09-03T10:06:39;17.40;99.90
2897;DHT22;1458;49.728;9.228;2022-09-03T10:09:24;17.40;99.90
2897;DHT22;1458;49.728;9.228;2022-09-03T10:11:59;17.20;99.90
2897;DHT22;1458;49.728;9.228;2022-09-03T10:14:36;17.30;99.90
2897;DHT22;1458;49.728;9.228;2022-09-03T10:17:11;17.20;99.90
2897;DHT22;1458;49.728;9.228;2022-09-03T10:19:47;17.20;99.90
2897;DHT22;1458;49.728;9.228;2022-09-03T10:22:44;17.10;99.90
2897;DHT22;1458;49.728;9.228;2022-09-03T10:25:15;17.00;99.90
2897;DHT22;1458;49.728;9.228;2022-09-03T10:27:44;17.20;99.90
2897;DHT22;1458;49.728;9.228;2022-09-03T10:30:12;17.40;99.90
2897;DHT22;1458;49.728;9.228;2022-09-03T10:32:45;17.40;99.90
2897;DHT22;1458;49.728;9.228;2022-09-03T10:35:28;17.50;99.90
2897;DHT22;1458;49.728;9.228;2022-09-03T10:38:07;17.50;99.90
2897;DHT22;1458;49.728;9.228;2022-09-03T10:40:43;17.50;99.90
2897;DHT22;1458;49.728;9.228;2022-09-03T10:43:29;17.50;99.90
2897;DHT22;1458;49.728;9.228;2022-09-03T10:46:10;17.50;99.90
2897;DHT22;1458;49.728;9.228;2022-09-03T10:49:10;17.60;99.90
2897;DHT22;1458;49.728;9.228;2022-09-03T10:51:51;17.40;99.90
2897;DHT22;1458;49.728;9.228;2022-09-03T10:54:37;17.40;99.90
2897;DHT22;1458;49.728;9.228;2022-09-03T10:57:23;17.30;99.90
2897;DHT22;1458;49.728;9.228;2022-09-03T11:00:03;17.30;99.90
2897;DHT22;1458;49.728;9.228;2022-09-03T11:02:51;17.40;99.90
2897;DHT22;1458;49.728;9.228;2022-09-03T11:05:30;17.70;99.90
2897;DHT22;1458;49.728;9.228;2022-09-03T11:08:06;17.80;99.90
2897;DHT22;1458;49.728;9.228;2022-09-03T11:10:41;18.30;99.90
2897;DHT22;1458;49.728;9.228;2022-09-03T11:13:19;18.80;99.90
2897;DHT22;1458;49.728;9.228;2022-09-03T11:15:51;19.20;99.90
2897;DHT22;1458;49.728;9.228;2022-09-03T11:18:24;19.20;99.90
2897;DHT22;1458;49.728;9.228;2022-09-03T11:20:58;19.40;99.90
2897;DHT22;1458;49.728;9.228;2022-09-03T11:23:33;19.70;99.90
2897;DHT22;1458;49.728;9.228;2022-09-03T11:26:09;19.40;98.20
2897;DHT22;1458;49.728;9.228;2022-09-03T11:28:42;19.30;99.30
2897;DHT22;1458;49.728;9.228;2022-09-03T11:31:21;19.30;99.70
2897;DHT22;1458;49.728;9.228;2022-09-03T11:33:55;19.40;99.90
2897;DHT22;1458;49.728;9.228;2022-09-03T11:36:30;19.40;99.90
2897;DHT22;1458;49.728;9.228;2022-09-03T11:38:59;19.30;98.40
2897;DHT22;1458;49.728;9.228;2022-09-03T11:41:33;19.20;98.50
2897;DHT22;1458;49.728;9.228;2022-09-03T11:44:16;19.10;97.90
2897;DHT22;1458;49.728;9.228;2022-09-03T11:46:54;18.90;98.60
2897;DHT22;1458;49.728;9.228;2022-09-03T11:49:27;18.70;99.90
2897;DHT22;1458;49.728;9.228;2022-09-03T11:51:59;18.70;98.80
2897;DHT22;1458;49.728;9.228;2022-09-03T11:54:30;18.80;99.70
2897;DHT22;1458;49.728;9.228;2022-09-03T11:57:12;18.80;99.20
2897;DHT22;1458;49.728;9.228;2022-09-03T11:59:42;18.90;99.50
2897;DHT22;1458;49.728;9.228;2022-09-03T12:02:21;19.10;99.90
2897;DHT22;1458;49.728;9.228;2022-09-03T12:05:00;19.10;99.40
2897;DHT22;1458;49.728;9.228;2022-09-03T12:08:03;19.30;99.90
2897;DHT22;1458;49.728;9.228;2022-09-03T12:10:57;19.50;99.80
2897;DHT22;1458;49.728;9.228;2022-09-03T12:13:49;19.70;99.90
2897;DHT22;1458;49.728;9.228;2022-09-03T12:16:36;19.80;99.40
2897;DHT22;1458;49.728;9.228;2022-09-03T12:19:20;19.80;98.60
2897;DHT22;1458;49.728;9.228;2022-09-03T12:21:53;19.90;97.80
2897;DHT22;1458;49.728;9.228;2022-09-03T12:24:21;20.20;98.60
2897;DHT22;1458;49.728;9.228;2022-09-03T12:26:50;20.50;97.70
2897;DHT22;1458;49.728;9.228;2022-09-03T12:29:24;20.70;95.50
2897;DHT22;1458;49.728;9.228;2022-09-03T12:31:53;20.90;93.70
2897;DHT22;1458;49.728;9.228;2022-09-03T12:34:22;20.90;94.30
2897;DHT22;1458;49.728;9.228;2022-09-03T12:36:53;21.10;94.30
2897;DHT22;1458;49.728;9.228;2022-09-03T12:39:22;21.10;92.80
2897;DHT22;1458;49.728;9.228;2022-09-03T12:42:01;21.20;92.60
2897;DHT22;1458;49.728;9.228;2022-09-03T12:44:39;21.30;92.20
2897;DHT22;1458;49.728;9.228;2022-09-03T12:47:10;21.40;91.80
2897;DHT22;1458;49.728;9.228;2022-09-03T12:49:40;21.60;91.90
2897;DHT22;1458;49.728;9.228;2022-09-03T12:52:15;21.70;91.00
2897;DHT22;1458;49.728;9.228;2022-09-03T12:54:51;21.70;91.30
2897;DHT22;1458;49.728;9.228;2022-09-03T12:57:23;22.00;91.20
2897;DHT22;1458;49.728;9.228;2022-09-03T12:59:58;22.10;90.50
2897;DHT22;1458;49.728;9.228;2022-09-03T13:02:36;22.50;90.60
2897;DHT22;1458;49.728;9.228;2022-09-03T13:05:10;22.70;87.70
2897;DHT22;1458;49.728;9.228;2022-09-03T13:07:45;23.00;88.10
2897;DHT22;1458;49.728;9.228;2022-09-03T13:10:24;23.10;86.60
2897;DHT22;1458;49.728;9.228;2022-09-03T13:12:58;23.30;85.80
2897;DHT22;1458;49.728;9.228;2022-09-03T13:15:28;23.70;84.00
2897;DHT22;1458;49.728;9.228;2022-09-03T13:18:18;23.80;79.80
2897;DHT22;1458;49.728;9.228;2022-09-03T13:21:08;24.00;78.80
2897;DHT22;1458;49.728;9.228;2022-09-03T13:24:05;23.90;77.20
2897;DHT22;1458;49.728;9.228;2022-09-03T13:27:01;23.90;76.20
2897;DHT22;1458;49.728;9.228;2022-09-03T13:29:39;23.70;74.80
2897;DHT22;1458;49.728;9.228;2022-09-03T13:32:28;23.60;77.50
2897;DHT22;1458;49.728;9.228;2022-09-03T13:35:05;23.60;78.90
2897;DHT22;1458;49.728;9.228;2022-09-03T13:37:38;23.60;74.20
2897;DHT22;1458;49.728;9.228;2022-09-03T13:40:15;23.50;73.40
2897;DHT22;1458;49.728;9.228;2022-09-03T13:42:50;23.40;75.50
2897;DHT22;1458;49.728;9.228;2022-09-03T13:45:27;23.40;78.70
2897;DHT22;1458;49.728;9.228;2022-09-03T13:48:05;23.40;75.30
2897;DHT22;1458;49.728;9.228;2022-09-03T13:51:00;23.40;72.90
2897;DHT22;1458;49.728;9.228;2022-09-03T13:53:44;23.30;75.10
2897;DHT22;1458;49.728;9.228;2022-09-03T13:56:30;23.50;74.80
2897;DHT22;1458;49.728;9.228;2022-09-03T13:59:05;23.20;75.10
2897;DHT22;1458;49.728;9.228;2022-09-03T14:01:52;23.10;76.70
2897;DHT22;1458;49.728;9.228;2022-09-03T14:04:39;23.00;74.90
2897;DHT22;1458;49.728;9.228;2022-09-03T14:07:14;23.00;75.70
2897;DHT22;1458;49.728;9.228;2022-09-03T14:09:55;23.30;74.10
2897;DHT22;1458;49.728;9.228;2022-09-03T14:12:36;23.50;74.80
2897;DHT22;1458;49.728;9.228;2022-09-03T14:15:16;23.60;73.40
2897;DHT22;1458;49.728;9.228;2022-09-03T14:17:50;23.70;71.50
2897;DHT22;1458;49.728;9.228;2022-09-03T14:20:27;23.60;72.10
2897;DHT22;1458;49.728;9.228;2022-09-03T14:23:02;23.60;73.80
2897;DHT22;1458;49.728;9.228;2022-09-03T14:25:31;23.90;73.10
2897;DHT22;1458;49.728;9.228;2022-09-03T14:28:13;23.90;73.90
2897;DHT22;1458;49.728;9.228;2022-09-03T14:30:50;23.90;74.40
2897;DHT22;1458;49.728;9.228;2022-09-03T14:33:23;24.00;73.60
2897;DHT22;1458;49.728;9.228;2022-09-03T14:36:07;23.90;71.90
2897;DHT22;1458;49.728;9.228;2022-09-03T14:39:11;23.70;72.30
2897;DHT22;1458;49.728;9.228;2022-09-03T14:42:13;23.50;72.50
2897;DHT22;1458;49.728;9.228;2022-09-03T14:45:03;23.30;72.80
2897;DHT22;1458;49.728;9.228;2022-09-03T14:47:59;23.50;75.00
2897;DHT22;1458;49.728;9.228;2022-09-03T14:50:43;23.60;73.00
2897;DHT22;1458;49.728;9.228;2022-09-03T14:53:47;23.70;73.50
2897;DHT22;1458;49.728;9.228;2022-09-03T14:56:32;23.70;71.80
2897;DHT22;1458;49.728;9.228;2022-09-03T14:59:22;24.10;71.00
2897;DHT22;1458;49.728;9.228;2022-09-03T15:02:14;24.20;68.20
2897;DHT22;1458;49.728;9.228;2022-09-03T15:04:57;24.00;67.30
2897;DHT22;1458;49.728;9.228;2022-09-03T15:07:40;23.80;67.30
2897;DHT22;1458;49.728;9.228;2022-09-03T15:10:17;23.70;68.20
2897;DHT22;1458;49.728;9.228;2022-09-03T15:12:52;23.60;68.60
2897;DHT22;1458;49.728;9.228;2022-09-03T15:15:29;23.40;68.10
2897;DHT22;1458;49.728;9.228;2022-09-03T15:18:10;23.70;67.30
2897;DHT22;1458;49.728;9.228;2022-09-03T15:20:49;23.90;68.20
2897;DHT22;1458;49.728;9.228;2022-09-03T15:23:25;23.90;69.10
2897;DHT22;1458;49.728;9.228;2022-09-03T15:26:34;24.00;67.80
2897;DHT22;1458;49.728;9.228;2022-09-03T15:29:29;24.10;67.80
2897;DHT22;1458;49.728;9.228;2022-09-03T15:32:11;24.10;68.50
2897;DHT22;1458;49.728;9.228;2022-09-03T15:35:03;24.20;67.90
2897;DHT22;1458;49.728;9.228;2022-09-03T15:37:38;23.90;68.50
2897;DHT22;1458;49.728;9.228;2022-09-03T15:40:27;23.90;67.20
2897;DHT22;1458;49.728;9.228;2022-09-03T15:43:01;23.90;68.70
2897;DHT22;1458;49.728;9.228;2022-09-03T15:45:35;23.90;67.50
2897;DHT22;1458;49.728;9.228;2022-09-03T15:48:12;23.80;66.80
2897;DHT22;1458;49.728;9.228;2022-09-03T15:50:52;23.80;66.80
2897;DHT22;1458;49.728;9.228;2022-09-03T15:53:30;23.90;65.90
2897;DHT22;1458;49.728;9.228;2022-09-03T15:56:17;24.00;66.00
2897;DHT22;1458;49.728;9.228;2022-09-03T15:58:54;24.00;64.70
2897;DHT22;1458;49.728;9.228;2022-09-03T16:01:31;23.80;67.00
2897;DHT22;1458;49.728;9.228;2022-09-03T16:04:24;23.70;67.60
2897;DHT22;1458;49.728;9.228;2022-09-03T16:07:07;23.70;68.20
2897;DHT22;1458;49.728;9.228;2022-09-03T16:09:45;23.60;68.20
2897;DHT22;1458;49.728;9.228;2022-09-03T16:12:22;23.50;67.50
2897;DHT22;1458;49.728;9.228;2022-09-03T16:14:59;23.40;68.80
2897;DHT22;1458;49.728;9.228;2022-09-03T16:17:31;23.10;69.60
2897;DHT22;1458;49.728;9.228;2022-09-03T16:20:05;23.00;70.20
2897;DHT22;1458;49.728;9.228;2022-09-03T16:22:41;22.70;71.30
2897;DHT22;1458;49.728;9.228;2022-09-03T16:25:14;22.50;72.70
2897;DHT22;1458;49.728;9.228;2022-09-03T16:27:51;22.40;73.80
2897;DHT22;1458;49.728;9.228;2022-09-03T16:30:40;22.20;74.40
2897;DHT22;1458;49.728;9.228;2022-09-03T16:33:17;22.10;75.60
2897;DHT22;1458;49.728;9.228;2022-09-03T16:35:58;22.10;75.20
2897;DHT22;1458;49.728;9.228;2022-09-03T16:38:41;22.00;76.00
2897;DHT22;1458;49.728;9.228;2022-09-03T16:41:20;21.90;77.60
2897;DHT22;1458;49.728;9.228;2022-09-03T16:44:00;21.90;77.60
2897;DHT22;1458;49.728;9.228;2022-09-03T16:46:40;21.80;77.90
2897;DHT22;1458;49.728;9.228;2022-09-03T16:49:24;21.80;78.60
2897;DHT22;1458;49.728;9.228;2022-09-03T16:52:06;21.70;78.90
2897;DHT22;1458;49.728;9.228;2022-09-03T16:54:54;21.80;79.20